sensor_id;sensor_type;location;lat;lon;timestamp;pressure;altitude;pressure_sealevel;temperature;humidity
77027;BME280;65956;52.986;17.490;2023-04-15T00:01:44;99473.97;;;8.27;78.38
77027;BME280;65956;52.986;17.490;2023-04-15T00:04:10;99473.52;;;8.23;78.35
77027;BME280;65956;52.986;17.490;2023-04-15T00:06:36;99467.52;;;8.18;78.60
77027;BME280;65956;52.986;17.490;2023-04-15T00:09:02;99470.19;;;8.16;78.72
77027;BME280;65956;52.986;17.490;2023-04-15T00:11:28;99468.09;;;8.13;78.83
77027;BME280;65956;52.986;17.490;2023-04-15T00:13:55;99465.99;;;8.11;79.15
77027;BME280;65956;52.986;17.490;2023-04-15T00:16:21;99463.75;;;8.08;79.27
77027;BME280;65956;52.986;17.490;2023-04-15T00:18:47;99462.45;;;8.07;79.52
77027;BME280;65956;52.986;17.490;2023-04-15T00:21:13;99463.00;;;8.06;79.37
77027;BME280;65956;52.986;17.490;2023-04-15T00:23:39;99459.90;;;8.05;79.70
77027;BME280;65956;52.986;17.490;2023-04-15T00:26:05;99459.65;;;8.05;79.78
77027;BME280;65956;52.986;17.490;2023-04-15T00:28:32;99461.16;;;8.04;79.66
77027;BME280;65956;52.986;17.490;2023-04-15T00:30:58;99455.02;;;8.02;79.51
77027;BME280;65956;52.986;17.490;2023-04-15T00:33:24;99454.99;;;8.00;79.95
77027;BME280;65956;52.986;17.490;2023-04-15T00:35:50;99451.58;;;7.99;79.93
77027;BME280;65956;52.986;17.490;2023-04-15T00:38:17;99447.52;;;7.98;79.74
77027;BME280;65956;52.986;17.490;2023-04-15T00:40:43;99445.91;;;7.98;79.77
77027;BME280;65956;52.986;17.490;2023-04-15T00:43:09;99447.90;;;7.98;79.79
77027;BME280;65956;52.986;17.490;2023-04-15T00:45:35;99448.88;;;7.99;79.90
77027;BME280;65956;52.986;17.490;2023-04-15T00:48:02;99452.15;;;8.01;79.97
77027;BME280;65956;52.986;17.490;2023-04-15T00:50:28;99456.88;;;8.03;79.93
77027;BME280;65956;52.986;17.490;2023-04-15T00:52:54;99457.42;;;8.04;79.74
77027;BME280;65956;52.986;17.490;2023-04-15T00:55:20;99456.72;;;8.05;79.69
77027;BME280;65956;52.986;17.490;2023-04-15T00:57:47;99457.27;;;8.03;79.57
77027;BME280;65956;52.986;17.490;2023-04-15T01:00:13;99453.89;;;8.01;79.67
77027;BME280;65956;52.986;17.490;2023-04-15T01:02:39;99451.91;;;8.00;79.67
77027;BME280;65956;52.986;17.490;2023-04-15T01:05:05;99448.55;;;7.98;79.76
77027;BME280;65956;52.986;17.490;2023-04-15T01:07:32;99447.41;;;7.96;79.88
77027;BME280;65956;52.986;17.490;2023-04-15T01:09:58;99450.58;;;7.96;79.99
77027;BME280;65956;52.986;17.490;2023-04-15T01:12:25;99448.90;;;7.95;79.99
77027;BME280;65956;52.986;17.490;2023-04-15T01:14:53;99450.62;;;7.93;79.93
77027;BME280;65956;52.986;17.490;2023-04-15T01:17:20;99453.77;;;7.91;79.90
77027;BME280;65956;52.986;17.490;2023-04-15T01:19:46;99455.39;;;7.89;79.87
77027;BME280;65956;52.986;17.490;2023-04-15T01:22:12;99455.38;;;7.86;79.97
77027;BME280;65956;52.986;17.490;2023-04-15T01:24:39;99455.57;;;7.85;79.96
77027;BME280;65956;52.986;17.490;2023-04-15T01:27:05;99456.34;;;7.83;80.03
77027;BME280;65956;52.986;17.490;2023-04-15T01:29:34;99449.73;;;7.80;80.18
77027;BME280;65956;52.986;17.490;2023-04-15T01:32:00;99447.02;;;7.79;80.37
77027;BME280;65956;52.986;17.490;2023-04-15T01:34:26;99452.31;;;7.79;80.54
77027;BME280;65956;52.986;17.490;2023-04-15T01:36:53;99452.41;;;7.80;80.71
77027;BME280;65956;52.986;17.490;2023-04-15T01:39:20;99451.23;;;7.80;80.56
77027;BME280;65956;52.986;17.490;2023-04-15T01:41:47;99452.67;;;7.81;80.61
77027;BME280;65956;52.986;17.490;2023-04-15T01:44:15;99452.05;;;7.83;80.72
77027;BME280;65956;52.986;17.490;2023-04-15T01:46:41;99451.27;;;7.83;80.58
77027;BME280;65956;52.986;17.490;2023-04-15T01:49:07;99453.48;;;7.83;80.45
77027;BME280;65956;52.986;17.490;2023-04-15T01:51:33;99454.27;;;7.83;80.61
77027;BME280;65956;52.986;17.490;2023-04-15T01:53:59;99456.98;;;7.84;80.73
77027;BME280;65956;52.986;17.490;2023-04-15T01:56:25;99452.34;;;7.86;80.87
77027;BME280;65956;52.986;17.490;2023-04-15T01:58:51;99452.29;;;7.88;80.94
77027;BME280;65956;52.986;17.490;2023-04-15T02:01:18;99449.77;;;7.89;80.94
77027;BME280;65956;52.986;17.490;2023-04-15T02:03:47;99450.23;;;7.88;81.05
77027;BME280;65956;52.986;17.490;2023-04-15T02:06:14;99447.21;;;7.88;80.93
77027;BME280;65956;52.986;17.490;2023-04-15T02:08:40;99448.80;;;7.88;81.15
77027;BME280;65956;52.986;17.490;2023-04-15T02:11:06;99451.89;;;7.87;81.14
77027;BME280;65956;52.986;17.490;2023-04-15T02:13:33;99452.33;;;7.85;80.96
77027;BME280;65956;52.986;17.490;2023-04-15T02:15:59;99453.73;;;7.83;81.08
77027;BME280;65956;52.986;17.490;2023-04-15T02:18:25;99458.23;;;7.82;81.13
77027;BME280;65956;52.986;17.490;2023-04-15T02:20:51;99450.59;;;7.80;81.30
77027;BME280;65956;52.986;17.490;2023-04-15T02:23:17;99449.92;;;7.77;81.16
77027;BME280;65956;52.986;17.490;2023-04-15T02:25:43;99449.50;;;7.76;81.35
77027;BME280;65956;52.986;17.490;2023-04-15T02:28:09;99450.74;;;7.74;81.41
77027;BME280;65956;52.986;17.490;2023-04-15T02:30:35;99453.98;;;7.73;81.57
77027;BME280;65956;52.986;17.490;2023-04-15T02:33:02;99454.77;;;7.72;81.49
77027;BME280;65956;52.986;17.490;2023-04-15T02:35:29;99450.67;;;7.75;81.62
77027;BME280;65956;52.986;17.490;2023-04-15T02:37:55;99451.52;;;7.79;81.69
77027;BME280;65956;52.986;17.490;2023-04-15T02:40:21;99452.15;;;7.83;81.76
77027;BME280;65956;52.986;17.490;2023-04-15T02:42:47;99448.73;;;7.89;81.69
77027;BME280;65956;52.986;17.490;2023-04-15T02:45:15;99451.10;;;7.95;81.67
77027;BME280;65956;52.986;17.490;2023-04-15T02:47:41;99450.72;;;8.01;81.52
77027;BME280;65956;52.986;17.490;2023-04-15T02:50:10;99455.32;;;8.07;81.26
77027;BME280;65956;52.986;17.490;2023-04-15T02:52:41;99453.96;;;8.12;81.32
77027;BME280;65956;52.986;17.490;2023-04-15T02:55:08;99449.66;;;8.17;81.28
77027;BME280;65956;52.986;17.490;2023-04-15T02:57:35;99452.42;;;8.23;81.15
77027;BME280;65956;52.986;17.490;2023-04-15T03:00:05;99449.70;;;8.27;81.16
77027;BME280;65956;52.986;17.490;2023-04-15T03:02:35;99449.93;;;8.31;81.12
77027;BME280;65956;52.986;17.490;2023-04-15T03:05:03;99449.93;;;8.36;80.81
77027;BME280;65956;52.986;17.490;2023-04-15T03:07:30;99452.67;;;8.41;80.74
77027;BME280;65956;52.986;17.490;2023-04-15T03:09:56;99450.98;;;8.45;80.68
77027;BME280;65956;52.986;17.490;2023-04-15T03:12:23;99454.27;;;8.49;80.58
77027;BME280;65956;52.986;17.490;2023-04-15T03:14:49;99452.33;;;8.52;80.37
77027;BME280;65956;52.986;17.490;2023-04-15T03:17:15;99455.28;;;8.54;80.29
77027;BME280;65956;52.986;17.490;2023-04-15T03:19:43;99456.27;;;8.56;80.23
77027;BME280;65956;52.986;17.490;2023-04-15T03:22:10;99459.46;;;8.57;80.29
77027;BME280;65956;52.986;17.490;2023-04-15T03:24:36;99456.70;;;8.59;80.19
77027;BME280;65956;52.986;17.490;2023-04-15T03:27:02;99464.27;;;8.62;79.96
77027;BME280;65956;52.986;17.490;2023-04-15T03:29:29;99465.73;;;8.65;79.88
77027;BME280;65956;52.986;17.490;2023-04-15T03:31:54;99464.48;;;8.68;79.82
77027;BME280;65956;52.986;17.490;2023-04-15T03:34:21;99463.24;;;8.70;79.72
77027;BME280;65956;52.986;17.490;2023-04-15T03:36:47;99465.80;;;8.71;79.65
77027;BME280;65956;52.986;17.490;2023-04-15T03:39:13;99465.55;;;8.72;79.63
77027;BME280;65956;52.986;17.490;2023-04-15T03:41:39;99468.14;;;8.75;79.54
77027;BME280;65956;52.986;17.490;2023-04-15T03:44:05;99471.89;;;8.77;79.48
77027;BME280;65956;52.986;17.490;2023-04-15T03:46:31;99472.30;;;8.80;79.32
77027;BME280;65956;52.986;17.490;2023-04-15T03:48:57;99465.89;;;8.81;79.24
77027;BME280;65956;52.986;17.490;2023-04-15T03:51:23;99466.39;;;8.82;79.23
77027;BME280;65956;52.986;17.490;2023-04-15T03:53:49;99464.56;;;8.82;79.14
77027;BME280;65956;52.986;17.490;2023-04-15T03:56:15;99469.73;;;8.84;79.15
77027;BME280;65956;52.986;17.490;2023-04-15T03:58:41;99469.19;;;8.85;79.16
77027;BME280;65956;52.986;17.490;2023-04-15T04:01:07;99468.56;;;8.85;79.16
77027;BME280;65956;52.986;17.490;2023-04-15T04:03:33;99474.92;;;8.85;79.16
77027;BME280;65956;52.986;17.490;2023-04-15T04:06:00;99475.25;;;8.86;79.04
77027;BME280;65956;52.986;17.490;2023-04-15T04:08:26;99478.11;;;8.88;79.09
77027;BME280;65956;52.986;17.490;2023-04-15T04:10:52;99479.27;;;8.90;79.07
77027;BME280;65956;52.986;17.490;2023-04-15T04:13:18;99479.50;;;8.92;78.92
77027;BME280;65956;52.986;17.490;2023-04-15T04:15:44;99479.19;;;8.93;78.91
77027;BME280;65956;52.986;17.490;2023-04-15T04:18:10;99477.38;;;8.93;78.96
77027;BME280;65956;52.986;17.490;2023-04-15T04:20:36;99481.92;;;8.95;78.77
77027;BME280;65956;52.986;17.490;2023-04-15T04:23:02;99482.02;;;8.97;78.74
77027;BME280;65956;52.986;17.490;2023-04-15T04:25:28;99481.61;;;8.97;78.87
77027;BME280;65956;52.986;17.490;2023-04-15T04:27:54;99482.48;;;8.97;78.90
77027;BME280;65956;52.986;17.490;2023-04-15T04:30:20;99485.77;;;8.99;78.77
77027;BME280;65956;52.986;17.490;2023-04-15T04:32:46;99477.84;;;8.99;78.88
77027;BME280;65956;52.986;17.490;2023-04-15T04:35:14;99485.15;;;9.01;78.75
77027;BME280;65956;52.986;17.490;2023-04-15T04:37:40;99483.98;;;9.02;78.80
77027;BME280;65956;52.986;17.490;2023-04-15T04:40:07;99485.02;;;9.04;78.75
77027;BME280;65956;52.986;17.490;2023-04-15T04:42:34;99483.60;;;9.03;78.74
77027;BME280;65956;52.986;17.490;2023-04-15T04:45:00;99480.91;;;9.04;78.81
77027;BME280;65956;52.986;17.490;2023-04-15T04:47:26;99483.05;;;9.05;78.73
77027;BME280;65956;52.986;17.490;2023-04-15T04:49:52;99483.30;;;9.06;78.77
77027;BME280;65956;52.986;17.490;2023-04-15T04:52:18;99483.71;;;9.07;78.84
77027;BME280;65956;52.986;17.490;2023-04-15T04:54:44;99484.75;;;9.08;78.79
77027;BME280;65956;52.986;17.490;2023-04-15T04:57:10;99487.54;;;9.11;78.80
77027;BME280;65956;52.986;17.490;2023-04-15T04:59:38;99489.22;;;9.11;78.76
77027;BME280;65956;52.986;17.490;2023-04-15T05:02:04;99485.95;;;9.11;78.99
77027;BME280;65956;52.986;17.490;2023-04-15T05:04:31;99485.81;;;9.12;79.02
77027;BME280;65956;52.986;17.490;2023-04-15T05:06:57;99487.17;;;9.13;79.08
77027;BME280;65956;52.986;17.490;2023-04-15T05:09:24;99487.83;;;9.14;79.20
77027;BME280;65956;52.986;17.490;2023-04-15T05:11:50;99487.35;;;9.15;79.15
77027;BME280;65956;52.986;17.490;2023-04-15T05:14:16;99488.88;;;9.17;79.04
77027;BME280;65956;52.986;17.490;2023-04-15T05:16:42;99483.33;;;9.19;79.10
77027;BME280;65956;52.986;17.490;2023-04-15T05:19:08;99486.52;;;9.21;79.35
77027;BME280;65956;52.986;17.490;2023-04-15T05:21:34;99489.39;;;9.22;79.56
77027;BME280;65956;52.986;17.490;2023-04-15T05:24:00;99489.98;;;9.25;79.51
77027;BME280;65956;52.986;17.490;2023-04-15T05:26:26;99490.88;;;9.27;79.37
77027;BME280;65956;52.986;17.490;2023-04-15T05:28:53;99490.52;;;9.32;79.30
77027;BME280;65956;52.986;17.490;2023-04-15T05:31:18;99488.88;;;9.35;79.18
77027;BME280;65956;52.986;17.490;2023-04-15T05:33:45;99488.83;;;9.38;78.97
77027;BME280;65956;52.986;17.490;2023-04-15T05:36:11;99488.60;;;9.40;78.98
77027;BME280;65956;52.986;17.490;2023-04-15T05:38:37;99492.67;;;9.42;79.06
77027;BME280;65956;52.986;17.490;2023-04-15T05:41:03;99498.30;;;9.41;79.01
77027;BME280;65956;52.986;17.490;2023-04-15T05:43:29;99496.54;;;9.40;79.25
77027;BME280;65956;52.986;17.490;2023-04-15T05:45:55;99498.54;;;9.40;79.43
77027;BME280;65956;52.986;17.490;2023-04-15T05:48:21;99499.15;;;9.39;79.72
77027;BME280;65956;52.986;17.490;2023-04-15T05:50:47;99503.60;;;9.37;80.00
77027;BME280;65956;52.986;17.490;2023-04-15T05:53:14;99502.39;;;9.35;80.51
77027;BME280;65956;52.986;17.490;2023-04-15T05:55:40;99504.02;;;9.31;80.76
77027;BME280;65956;52.986;17.490;2023-04-15T05:58:06;99501.27;;;9.28;81.03
77027;BME280;65956;52.986;17.490;2023-04-15T06:00:32;99500.16;;;9.26;81.16
77027;BME280;65956;52.986;17.490;2023-04-15T06:02:58;99504.51;;;9.24;81.52
77027;BME280;65956;52.986;17.490;2023-04-15T06:05:24;99505.92;;;9.24;81.67
77027;BME280;65956;52.986;17.490;2023-04-15T06:07:50;99505.84;;;9.23;81.85
77027;BME280;65956;52.986;17.490;2023-04-15T06:10:16;99511.88;;;9.23;81.98
77027;BME280;65956;52.986;17.490;2023-04-15T06:12:42;99515.21;;;9.24;81.76
77027;BME280;65956;52.986;17.490;2023-04-15T06:15:09;99513.95;;;9.23;82.12
77027;BME280;65956;52.986;17.490;2023-04-15T06:17:36;99516.46;;;9.20;82.57
77027;BME280;65956;52.986;17.490;2023-04-15T06:20:02;99520.68;;;9.13;83.13
77027;BME280;65956;52.986;17.490;2023-04-15T06:22:28;99521.02;;;9.07;83.46
77027;BME280;65956;52.986;17.490;2023-04-15T06:24:55;99523.91;;;9.02;83.80
77027;BME280;65956;52.986;17.490;2023-04-15T06:27:21;99523.76;;;8.96;84.24
77027;BME280;65956;52.986;17.490;2023-04-15T06:29:47;99526.96;;;8.91;84.52
77027;BME280;65956;52.986;17.490;2023-04-15T06:32:13;99527.84;;;8.86;85.09
77027;BME280;65956;52.986;17.490;2023-04-15T06:34:39;99531.69;;;8.80;85.64
77027;BME280;65956;52.986;17.490;2023-04-15T06:37:06;99536.71;;;8.76;85.84
77027;BME280;65956;52.986;17.490;2023-04-15T06:39:32;99534.69;;;8.73;85.83
77027;BME280;65956;52.986;17.490;2023-04-15T06:41:58;99535.14;;;8.70;86.39
77027;BME280;65956;52.986;17.490;2023-04-15T06:44:24;99537.80;;;8.68;86.90
77027;BME280;65956;52.986;17.490;2023-04-15T06:46:50;99538.46;;;8.63;87.44
77027;BME280;65956;52.986;17.490;2023-04-15T06:49:16;99540.02;;;8.61;87.73
77027;BME280;65956;52.986;17.490;2023-04-15T06:51:42;99541.02;;;8.59;88.24
77027;BME280;65956;52.986;17.490;2023-04-15T06:54:08;99541.96;;;8.57;88.59
77027;BME280;65956;52.986;17.490;2023-04-15T06:56:34;99543.54;;;8.56;88.93
77027;BME280;65956;52.986;17.490;2023-04-15T06:59:00;99547.33;;;8.54;89.06
77027;BME280;65956;52.986;17.490;2023-04-15T07:01:27;99543.91;;;8.54;89.10
77027;BME280;65956;52.986;17.490;2023-04-15T07:03:53;99546.69;;;8.55;89.19
77027;BME280;65956;52.986;17.490;2023-04-15T07:06:19;99549.77;;;8.54;89.69
77027;BME280;65956;52.986;17.490;2023-04-15T07:08:46;99556.12;;;8.54;89.79
77027;BME280;65956;52.986;17.490;2023-04-15T07:11:12;99554.69;;;8.54;89.96
77027;BME280;65956;52.986;17.490;2023-04-15T07:13:39;99556.75;;;8.54;90.08
77027;BME280;65956;52.986;17.490;2023-04-15T07:16:05;99560.08;;;8.53;90.26
77027;BME280;65956;52.986;17.490;2023-04-15T07:18:31;99558.89;;;8.54;90.11
77027;BME280;65956;52.986;17.490;2023-04-15T07:20:59;99567.88;;;8.55;90.15
77027;BME280;65956;52.986;17.490;2023-04-15T07:23:26;99566.78;;;8.56;90.13
77027;BME280;65956;52.986;17.490;2023-04-15T07:25:52;99569.17;;;8.56;90.47
77027;BME280;65956;52.986;17.490;2023-04-15T07:28:18;99569.34;;;8.57;90.54
77027;BME280;65956;52.986;17.490;2023-04-15T07:30:44;99569.12;;;8.58;90.80
77027;BME280;65956;52.986;17.490;2023-04-15T07:33:10;99568.59;;;8.61;90.73
77027;BME280;65956;52.986;17.490;2023-04-15T07:35:36;99564.33;;;8.63;90.81
77027;BME280;65956;52.986;17.490;2023-04-15T07:38:02;99573.06;;;8.63;90.94
77027;BME280;65956;52.986;17.490;2023-04-15T07:40:28;99571.19;;;8.65;90.94
77027;BME280;65956;52.986;17.490;2023-04-15T07:42:55;99569.29;;;8.67;90.74
77027;BME280;65956;52.986;17.490;2023-04-15T07:45:22;99574.01;;;8.69;90.61
77027;BME280;65956;52.986;17.490;2023-04-15T07:47:48;99568.93;;;8.69;90.56
77027;BME280;65956;52.986;17.490;2023-04-15T07:50:15;99573.65;;;8.72;90.68
77027;BME280;65956;52.986;17.490;2023-04-15T07:52:42;99574.10;;;8.76;90.67
77027;BME280;65956;52.986;17.490;2023-04-15T07:55:09;99577.73;;;8.81;90.87
77027;BME280;65956;52.986;17.490;2023-04-15T07:57:36;99581.40;;;8.84;90.86
77027;BME280;65956;52.986;17.490;2023-04-15T08:00:03;99583.60;;;8.86;90.84
77027;BME280;65956;52.986;17.490;2023-04-15T08:02:39;99584.73;;;8.89;90.54
77027;BME280;65956;52.986;17.490;2023-04-15T08:05:07;99585.16;;;8.92;90.43
77027;BME280;65956;52.986;17.490;2023-04-15T08:07:50;99587.17;;;8.94;90.53
77027;BME280;65956;52.986;17.490;2023-04-15T08:10:20;99587.73;;;8.96;90.52
77027;BME280;65956;52.986;17.490;2023-04-15T08:12:48;99591.66;;;8.98;90.51
77027;BME280;65956;52.986;17.490;2023-04-15T08:15:15;99592.09;;;9.00;90.40
77027;BME280;65956;52.986;17.490;2023-04-15T08:17:42;99593.86;;;9.03;90.40
77027;BME280;65956;52.986;17.490;2023-04-15T08:20:09;99591.74;;;9.04;90.35
77027;BME280;65956;52.986;17.490;2023-04-15T08:22:35;99585.30;;;9.05;90.41
77027;BME280;65956;52.986;17.490;2023-04-15T08:25:01;99592.55;;;9.06;90.33
77027;BME280;65956;52.986;17.490;2023-04-15T08:27:28;99589.56;;;9.09;90.46
77027;BME280;65956;52.986;17.490;2023-04-15T08:29:54;99599.69;;;9.12;90.38
77027;BME280;65956;52.986;17.490;2023-04-15T08:32:20;99596.69;;;9.14;90.45
77027;BME280;65956;52.986;17.490;2023-04-15T08:34:46;99599.42;;;9.17;90.42
77027;BME280;65956;52.986;17.490;2023-04-15T08:37:13;99598.71;;;9.19;90.30
77027;BME280;65956;52.986;17.490;2023-04-15T08:39:39;99598.64;;;9.19;90.30
77027;BME280;65956;52.986;17.490;2023-04-15T08:42:11;99600.89;;;9.21;90.23
77027;BME280;65956;52.986;17.490;2023-04-15T08:44:38;99599.64;;;9.23;90.35
77027;BME280;65956;52.986;17.490;2023-04-15T08:47:07;99602.20;;;9.24;90.31
77027;BME280;65956;52.986;17.490;2023-04-15T08:49:38;99601.69;;;9.28;90.28
77027;BME280;65956;52.986;17.490;2023-04-15T08:52:06;99600.81;;;9.36;90.16
77027;BME280;65956;52.986;17.490;2023-04-15T08:54:32;99604.04;;;9.40;89.93
77027;BME280;65956;52.986;17.490;2023-04-15T08:57:02;99604.46;;;9.42;89.93
77027;BME280;65956;52.986;17.490;2023-04-15T08:59:31;99610.36;;;9.45;89.87
77027;BME280;65956;52.986;17.490;2023-04-15T09:01:58;99605.14;;;9.47;89.77
77027;BME280;65956;52.986;17.490;2023-04-15T09:04:24;99609.70;;;9.50;89.62
77027;BME280;65956;52.986;17.490;2023-04-15T09:06:50;99609.94;;;9.50;89.58
77027;BME280;65956;52.986;17.490;2023-04-15T09:09:17;99609.40;;;9.51;89.56
77027;BME280;65956;52.986;17.490;2023-04-15T09:11:43;99611.55;;;9.52;89.46
77027;BME280;65956;52.986;17.490;2023-04-15T09:14:09;99612.20;;;9.52;89.32
77027;BME280;65956;52.986;17.490;2023-04-15T09:16:55;99612.73;;;9.51;89.37
77027;BME280;65956;52.986;17.490;2023-04-15T09:19:22;99615.20;;;9.52;89.38
77027;BME280;65956;52.986;17.490;2023-04-15T09:21:52;99609.02;;;9.54;89.54
77027;BME280;65956;52.986;17.490;2023-04-15T09:24:19;99609.34;;;9.54;89.42
77027;BME280;65956;52.986;17.490;2023-04-15T09:26:45;99610.05;;;9.54;89.40
77027;BME280;65956;52.986;17.490;2023-04-15T09:29:12;99608.15;;;9.55;89.48
77027;BME280;65956;52.986;17.490;2023-04-15T09:31:39;99609.36;;;9.57;89.39
77027;BME280;65956;52.986;17.490;2023-04-15T09:34:06;99606.23;;;9.61;89.28
77027;BME280;65956;52.986;17.490;2023-04-15T09:36:52;99609.21;;;9.66;89.19
77027;BME280;65956;52.986;17.490;2023-04-15T09:39:19;99606.60;;;9.76;88.93
77027;BME280;65956;52.986;17.490;2023-04-15T09:41:46;99604.43;;;9.81;88.93
77027;BME280;65956;52.986;17.490;2023-04-15T09:44:25;99608.43;;;9.85;88.86
77027;BME280;65956;52.986;17.490;2023-04-15T09:46:52;99609.55;;;9.96;88.68
77027;BME280;65956;52.986;17.490;2023-04-15T09:49:18;99612.53;;;10.10;88.49
77027;BME280;65956;52.986;17.490;2023-04-15T09:51:45;99613.38;;;10.25;88.29
77027;BME280;65956;52.986;17.490;2023-04-15T09:54:12;99611.46;;;10.35;87.86
77027;BME280;65956;52.986;17.490;2023-04-15T09:56:38;99615.99;;;10.47;87.57
77027;BME280;65956;52.986;17.490;2023-04-15T09:59:08;99618.73;;;10.51;87.48
77027;BME280;65956;52.986;17.490;2023-04-15T10:01:34;99621.64;;;10.46;87.22
77027;BME280;65956;52.986;17.490;2023-04-15T10:04:02;99622.06;;;10.38;86.98
77027;BME280;65956;52.986;17.490;2023-04-15T10:06:29;99623.70;;;10.33;87.21
77027;BME280;65956;52.986;17.490;2023-04-15T10:08:57;99623.51;;;10.28;87.43
77027;BME280;65956;52.986;17.490;2023-04-15T10:11:25;99625.21;;;10.22;87.37
77027;BME280;65956;52.986;17.490;2023-04-15T10:13:53;99625.07;;;10.16;87.24
77027;BME280;65956;52.986;17.490;2023-04-15T10:16:22;99627.09;;;10.17;87.39
77027;BME280;65956;52.986;17.490;2023-04-15T10:18:55;99625.64;;;10.26;87.44
77027;BME280;65956;52.986;17.490;2023-04-15T10:21:21;99625.66;;;10.40;87.43
77027;BME280;65956;52.986;17.490;2023-04-15T10:23:49;99623.75;;;10.53;87.47
77027;BME280;65956;52.986;17.490;2023-04-15T10:26:16;99620.15;;;10.63;87.18
77027;BME280;65956;52.986;17.490;2023-04-15T10:28:45;99622.64;;;10.68;86.79
77027;BME280;65956;52.986;17.490;2023-04-15T10:31:15;99625.09;;;10.63;86.46
77027;BME280;65956;52.986;17.490;2023-04-15T10:33:44;99625.55;;;10.59;86.03
77027;BME280;65956;52.986;17.490;2023-04-15T10:36:13;99630.32;;;10.58;86.05
77027;BME280;65956;52.986;17.490;2023-04-15T10:38:44;99632.35;;;10.52;86.27
77027;BME280;65956;52.986;17.490;2023-04-15T10:41:19;99634.86;;;10.48;86.34
77027;BME280;65956;52.986;17.490;2023-04-15T10:43:48;99634.40;;;10.39;86.45
77027;BME280;65956;52.986;17.490;2023-04-15T10:46:41;99635.73;;;10.34;86.33
77027;BME280;65956;52.986;17.490;2023-04-15T10:49:15;99637.85;;;10.30;86.67
77027;BME280;65956;52.986;17.490;2023-04-15T10:51:46;99642.03;;;10.26;86.79
77027;BME280;65956;52.986;17.490;2023-04-15T10:54:30;99643.65;;;10.19;86.90
77027;BME280;65956;52.986;17.490;2023-04-15T11:08:07;99651.14;;;9.94;87.38
77027;BME280;65956;52.986;17.490;2023-04-15T11:13:04;99653.25;;;9.91;87.73
77027;BME280;65956;52.986;17.490;2023-04-15T11:20:33;99652.60;;;9.90;87.62
77027;BME280;65956;52.986;17.490;2023-04-15T11:22:59;99657.69;;;9.92;87.59
77027;BME280;65956;52.986;17.490;2023-04-15T11:25:27;99653.49;;;9.92;87.54
77027;BME280;65956;52.986;17.490;2023-04-15T11:27:54;99660.90;;;9.93;87.37
77027;BME280;65956;52.986;17.490;2023-04-15T11:32:54;99664.38;;;9.99;87.37
77027;BME280;65956;52.986;17.490;2023-04-15T11:35:20;99667.21;;;9.98;87.20
77027;BME280;65956;52.986;17.490;2023-04-15T11:37:48;99668.96;;;9.97;87.23
77027;BME280;65956;52.986;17.490;2023-04-15T11:40:28;99670.95;;;9.96;87.12
77027;BME280;65956;52.986;17.490;2023-04-15T11:43:10;99673.40;;;9.95;87.23
77027;BME280;65956;52.986;17.490;2023-04-15T11:45:37;99673.36;;;9.92;87.12
77027;BME280;65956;52.986;17.490;2023-04-15T11:48:12;99674.00;;;9.91;87.02
77027;BME280;65956;52.986;17.490;2023-04-15T11:50:39;99676.80;;;9.93;87.18
77027;BME280;65956;52.986;17.490;2023-04-15T11:53:08;99674.58;;;9.93;87.07
77027;BME280;65956;52.986;17.490;2023-04-15T11:55:42;99676.80;;;9.93;87.31
77027;BME280;65956;52.986;17.490;2023-04-15T11:58:18;99678.05;;;9.91;87.29
77027;BME280;65956;52.986;17.490;2023-04-15T12:00:46;99679.06;;;9.88;87.37
77027;BME280;65956;52.986;17.490;2023-04-15T12:03:19;99681.73;;;9.85;87.39
77027;BME280;65956;52.986;17.490;2023-04-15T12:06:11;99687.11;;;9.82;87.35
77027;BME280;65956;52.986;17.490;2023-04-15T12:11:16;99690.96;;;9.77;87.59
77027;BME280;65956;52.986;17.490;2023-04-15T12:13:46;99692.73;;;9.73;87.98
77027;BME280;65956;52.986;17.490;2023-04-15T12:16:16;99694.69;;;9.68;88.28
77027;BME280;65956;52.986;17.490;2023-04-15T12:18:44;99694.94;;;9.71;88.20
77027;BME280;65956;52.986;17.490;2023-04-15T12:21:11;99697.36;;;9.74;88.21
77027;BME280;65956;52.986;17.490;2023-04-15T12:23:50;99700.89;;;9.77;88.13
77027;BME280;65956;52.986;17.490;2023-04-15T12:26:42;99699.78;;;9.77;88.32
77027;BME280;65956;52.986;17.490;2023-04-15T12:29:10;99699.12;;;9.74;88.38
77027;BME280;65956;52.986;17.490;2023-04-15T12:31:42;99699.80;;;9.71;88.65
77027;BME280;65956;52.986;17.490;2023-04-15T12:34:11;99703.08;;;9.73;88.70
77027;BME280;65956;52.986;17.490;2023-04-15T12:36:37;99703.06;;;9.79;88.81
77027;BME280;65956;52.986;17.490;2023-04-15T12:39:03;99703.58;;;9.83;88.85
77027;BME280;65956;52.986;17.490;2023-04-15T12:41:30;99704.73;;;9.86;88.94
77027;BME280;65956;52.986;17.490;2023-04-15T12:43:57;99704.06;;;9.91;88.89
77027;BME280;65956;52.986;17.490;2023-04-15T12:46:24;99705.10;;;10.00;88.73
77027;BME280;65956;52.986;17.490;2023-04-15T12:48:50;99707.27;;;10.11;88.60
77027;BME280;65956;52.986;17.490;2023-04-15T12:51:20;99703.06;;;10.17;88.42
77027;BME280;65956;52.986;17.490;2023-04-15T12:53:47;99708.33;;;10.18;88.13
77027;BME280;65956;52.986;17.490;2023-04-15T12:56:17;99709.74;;;10.18;87.83
77027;BME280;65956;52.986;17.490;2023-04-15T12:58:45;99709.82;;;10.18;87.84
77027;BME280;65956;52.986;17.490;2023-04-15T13:01:12;99711.02;;;10.14;88.08
77027;BME280;65956;52.986;17.490;2023-04-15T13:03:38;99713.45;;;10.10;87.85
77027;BME280;65956;52.986;17.490;2023-04-15T13:06:04;99717.03;;;10.10;87.75
77027;BME280;65956;52.986;17.490;2023-04-15T13:08:31;99717.11;;;10.09;87.84
77027;BME280;65956;52.986;17.490;2023-04-15T13:10:57;99718.64;;;10.11;87.79
77027;BME280;65956;52.986;17.490;2023-04-15T13:13:23;99722.70;;;10.13;87.81
77027;BME280;65956;52.986;17.490;2023-04-15T13:15:49;99721.13;;;10.15;87.71
77027;BME280;65956;52.986;17.490;2023-04-15T13:18:15;99721.98;;;10.14;87.81
77027;BME280;65956;52.986;17.490;2023-04-15T13:20:42;99722.15;;;10.11;87.60
77027;BME280;65956;52.986;17.490;2023-04-15T13:23:08;99726.45;;;10.10;87.45
77027;BME280;65956;52.986;17.490;2023-04-15T13:25:34;99727.05;;;10.10;87.51